sensor_id;sensor_type;location;lat;lon;timestamp;temperature;humidity
49861;DHT22;35761;48.826;9.238;2023-03-31T00:01:13;12.00;36.80
49861;DHT22;35761;48.826;9.238;2023-03-31T00:03:43;12.00;36.90
49861;DHT22;35761;48.826;9.238;2023-03-31T00:06:14;12.00;37.00
49861;DHT22;35761;48.826;9.238;2023-03-31T00:08:46;12.00;37.00
49861;DHT22;35761;48.826;9.238;2023-03-31T00:11:21;11.90;36.90
49861;DHT22;35761;48.826;9.238;2023-03-31T00:13:54;11.90;36.90
49861;DHT22;35761;48.826;9.238;2023-03-31T00:16:25;12.00;36.70
49861;DHT22;35761;48.826;9.238;2023-03-31T00:18:55;12.00;36.80
49861;DHT22;35761;48.826;9.238;2023-03-31T00:21:28;12.00;36.70
49861;DHT22;35761;48.826;9.238;2023-03-31T00:24:02;12.00;36.80
49861;DHT22;35761;48.826;9.238;2023-03-31T00:26:35;12.00;36.60
49861;DHT22;35761;48.826;9.238;2023-03-31T00:29:09;12.00;36.70
49861;DHT22;35761;48.826;9.238;2023-03-31T00:31:41;12.00;36.70
49861;DHT22;35761;48.826;9.238;2023-03-31T00:34:12;12.00;36.60
49861;DHT22;35761;48.826;9.238;2023-03-31T00:36:42;12.00;36.70
49861;DHT22;35761;48.826;9.238;2023-03-31T00:39:16;12.00;36.70
49861;DHT22;35761;48.826;9.238;2023-03-31T00:41:47;12.00;36.90
49861;DHT22;35761;48.826;9.238;2023-03-31T00:44:21;11.90;37.20
49861;DHT22;35761;48.826;9.238;2023-03-31T00:46:54;12.00;37.20
49861;DHT22;35761;48.826;9.238;2023-03-31T00:49:30;11.90;37.40
49861;DHT22;35761;48.826;9.238;2023-03-31T00:52:03;12.00;37.50
49861;DHT22;35761;48.826;9.238;2023-03-31T00:54:36;11.90;37.70
49861;DHT22;35761;48.826;9.238;2023-03-31T00:57:08;11.90;37.80
49861;DHT22;35761;48.826;9.238;2023-03-31T00:59:46;11.90;38.00
49861;DHT22;35761;48.826;9.238;2023-03-31T01:02:19;11.90;38.10
49861;DHT22;35761;48.826;9.238;2023-03-31T01:04:55;11.80;38.30
49861;DHT22;35761;48.826;9.238;2023-03-31T01:07:33;11.70;38.40
49861;DHT22;35761;48.826;9.238;2023-03-31T01:10:08;11.80;38.60
49861;DHT22;35761;48.826;9.238;2023-03-31T01:12:42;11.70;38.90
49861;DHT22;35761;48.826;9.238;2023-03-31T01:15:19;11.70;39.00
49861;DHT22;35761;48.826;9.238;2023-03-31T01:17:51;11.70;39.30
49861;DHT22;35761;48.826;9.238;2023-03-31T01:20:30;11.70;38.40
49861;DHT22;35761;48.826;9.238;2023-03-31T01:23:33;11.70;38.30
49861;DHT22;35761;48.826;9.238;2023-03-31T01:26:42;11.80;38.20
49861;DHT22;35761;48.826;9.238;2023-03-31T01:29:39;11.80;37.90
49861;DHT22;35761;48.826;9.238;2023-03-31T01:32:55;11.80;37.60
49861;DHT22;35761;48.826;9.238;2023-03-31T01:36:02;11.80;37.60
49861;DHT22;35761;48.826;9.238;2023-03-31T01:42:05;11.80;37.70
49861;DHT22;35761;48.826;9.238;2023-03-31T01:44:43;11.80;37.60
49861;DHT22;35761;48.826;9.238;2023-03-31T01:47:19;11.80;37.80
49861;DHT22;35761;48.826;9.238;2023-03-31T01:49:57;11.80;37.90
49861;DHT22;35761;48.826;9.238;2023-03-31T01:52:37;11.80;38.00
49861;DHT22;35761;48.826;9.238;2023-03-31T01:55:15;11.80;37.80
49861;DHT22;35761;48.826;9.238;2023-03-31T01:57:59;11.90;37.60
49861;DHT22;35761;48.826;9.238;2023-03-31T02:00:37;11.80;38.00
49861;DHT22;35761;48.826;9.238;2023-03-31T02:03:14;11.90;38.20
49861;DHT22;35761;48.826;9.238;2023-03-31T02:05:51;11.80;38.40
49861;DHT22;35761;48.826;9.238;2023-03-31T02:08:27;11.80;38.30
49861;DHT22;35761;48.826;9.238;2023-03-31T02:10:59;11.80;38.20
49861;DHT22;35761;48.826;9.238;2023-03-31T02:13:33;11.90;37.10
49861;DHT22;35761;48.826;9.238;2023-03-31T02:16:08;11.90;37.10
49861;DHT22;35761;48.826;9.238;2023-03-31T02:18:42;11.90;36.40
49861;DHT22;35761;48.826;9.238;2023-03-31T02:21:15;11.90;35.20
49861;DHT22;35761;48.826;9.238;2023-03-31T02:23:47;11.90;35.00
49861;DHT22;35761;48.826;9.238;2023-03-31T02:26:22;12.00;35.30
49861;DHT22;35761;48.826;9.238;2023-03-31T02:28:58;12.00;36.10
49861;DHT22;35761;48.826;9.238;2023-03-31T02:31:37;11.90;36.70
49861;DHT22;35761;48.826;9.238;2023-03-31T02:34:11;11.90;37.70
49861;DHT22;35761;48.826;9.238;2023-03-31T02:36:43;11.90;38.60
49861;DHT22;35761;48.826;9.238;2023-03-31T02:39:17;11.80;39.00
49861;DHT22;35761;48.826;9.238;2023-03-31T02:41:51;11.80;39.50
49861;DHT22;35761;48.826;9.238;2023-03-31T02:44:24;11.80;39.40
49861;DHT22;35761;48.826;9.238;2023-03-31T02:46:54;11.80;39.70
49861;DHT22;35761;48.826;9.238;2023-03-31T02:49:25;11.70;39.90
49861;DHT22;35761;48.826;9.238;2023-03-31T02:55:34;11.70;40.70
49861;DHT22;35761;48.826;9.238;2023-03-31T03:01:35;11.60;41.10
49861;DHT22;35761;48.826;9.238;2023-03-31T03:04:23;11.60;41.20
49861;DHT22;35761;48.826;9.238;2023-03-31T03:07:07;11.50;41.40
49861;DHT22;35761;48.826;9.238;2023-03-31T03:09:48;11.50;41.30
49861;DHT22;35761;48.826;9.238;2023-03-31T03:12:28;11.50;41.30
49861;DHT22;35761;48.826;9.238;2023-03-31T03:15:07;11.50;41.10
49861;DHT22;35761;48.826;9.238;2023-03-31T03:17:46;11.50;41.30
49861;DHT22;35761;48.826;9.238;2023-03-31T03:20:19;11.50;41.60
49861;DHT22;35761;48.826;9.238;2023-03-31T03:22:50;11.60;41.60
49861;DHT22;35761;48.826;9.238;2023-03-31T03:25:20;11.50;41.90
49861;DHT22;35761;48.826;9.238;2023-03-31T03:27:51;11.50;41.90
49861;DHT22;35761;48.826;9.238;2023-03-31T03:30:22;11.50;42.20
49861;DHT22;35761;48.826;9.238;2023-03-31T03:32:55;11.50;42.30
49861;DHT22;35761;48.826;9.238;2023-03-31T03:35:26;11.50;42.60
49861;DHT22;35761;48.826;9.238;2023-03-31T03:37:56;11.40;42.20
49861;DHT22;35761;48.826;9.238;2023-03-31T03:40:27;11.40;42.50
49861;DHT22;35761;48.826;9.238;2023-03-31T03:42:57;11.40;42.20
49861;DHT22;35761;48.826;9.238;2023-03-31T03:45:27;11.30;42.30
49861;DHT22;35761;48.826;9.238;2023-03-31T03:48:01;11.30;42.80
49861;DHT22;35761;48.826;9.238;2023-03-31T03:50:35;11.30;43.00
49861;DHT22;35761;48.826;9.238;2023-03-31T03:53:06;11.30;43.30
49861;DHT22;35761;48.826;9.238;2023-03-31T03:55:37;11.30;43.40
49861;DHT22;35761;48.826;9.238;2023-03-31T03:58:07;11.30;43.60
49861;DHT22;35761;48.826;9.238;2023-03-31T04:00:38;11.20;43.60
49861;DHT22;35761;48.826;9.238;2023-03-31T04:03:11;11.20;43.90
49861;DHT22;35761;48.826;9.238;2023-03-31T04:05:42;11.20;44.10
49861;DHT22;35761;48.826;9.238;2023-03-31T04:08:16;11.20;44.30
49861;DHT22;35761;48.826;9.238;2023-03-31T04:10:48;11.20;44.60
49861;DHT22;35761;48.826;9.238;2023-03-31T04:13:18;11.20;44.80
49861;DHT22;35761;48.826;9.238;2023-03-31T04:15:49;11.10;45.00
49861;DHT22;35761;48.826;9.238;2023-03-31T04:18:22;11.10;45.30
49861;DHT22;35761;48.826;9.238;2023-03-31T04:20:53;11.10;45.40
49861;DHT22;35761;48.826;9.238;2023-03-31T04:23:30;11.00;45.90
49861;DHT22;35761;48.826;9.238;2023-03-31T04:26:01;11.00;45.90
49861;DHT22;35761;48.826;9.238;2023-03-31T04:28:35;10.90;46.10
49861;DHT22;35761;48.826;9.238;2023-03-31T04:31:10;10.90;46.30
49861;DHT22;35761;48.826;9.238;2023-03-31T04:33:44;10.90;46.60
49861;DHT22;35761;48.826;9.238;2023-03-31T04:36:16;10.90;47.00
49861;DHT22;35761;48.826;9.238;2023-03-31T04:38:49;10.90;47.10
49861;DHT22;35761;48.826;9.238;2023-03-31T04:41:21;10.80;47.50
49861;DHT22;35761;48.826;9.238;2023-03-31T04:43:53;10.80;47.70
49861;DHT22;35761;48.826;9.238;2023-03-31T04:46:24;10.80;48.00
49861;DHT22;35761;48.826;9.238;2023-03-31T04:48:57;10.80;47.90
49861;DHT22;35761;48.826;9.238;2023-03-31T04:51:29;10.80;48.00
49861;DHT22;35761;48.826;9.238;2023-03-31T04:53:59;10.80;48.10
49861;DHT22;35761;48.826;9.238;2023-03-31T04:56:30;10.90;48.20
49861;DHT22;35761;48.826;9.238;2023-03-31T04:59:00;10.90;47.80
49861;DHT22;35761;48.826;9.238;2023-03-31T05:01:31;10.90;47.90
49861;DHT22;35761;48.826;9.238;2023-03-31T05:04:05;10.90;48.30
49861;DHT22;35761;48.826;9.238;2023-03-31T05:06:36;10.90;47.70
49861;DHT22;35761;48.826;9.238;2023-03-31T05:09:06;10.90;48.70
49861;DHT22;35761;48.826;9.238;2023-03-31T05:11:37;10.90;48.20
49861;DHT22;35761;48.826;9.238;2023-03-31T05:14:07;10.80;47.90
49861;DHT22;35761;48.826;9.238;2023-03-31T05:16:38;10.90;47.70
49861;DHT22;35761;48.826;9.238;2023-03-31T05:19:12;10.90;47.40
49861;DHT22;35761;48.826;9.238;2023-03-31T05:21:44;10.80;47.40
49861;DHT22;35761;48.826;9.238;2023-03-31T05:24:15;10.80;47.70
49861;DHT22;35761;48.826;9.238;2023-03-31T05:26:45;10.90;47.40
49861;DHT22;35761;48.826;9.238;2023-03-31T05:29:19;10.90;48.20
49861;DHT22;35761;48.826;9.238;2023-03-31T05:31:49;10.90;49.10
49861;DHT22;35761;48.826;9.238;2023-03-31T05:34:23;10.90;51.10
49861;DHT22;35761;48.826;9.238;2023-03-31T05:36:53;10.80;52.10
49861;DHT22;35761;48.826;9.238;2023-03-31T05:39:24;10.70;53.10
49861;DHT22;35761;48.826;9.238;2023-03-31T05:41:59;10.70;53.50
49861;DHT22;35761;48.826;9.238;2023-03-31T05:44:31;10.60;55.10
49861;DHT22;35761;48.826;9.238;2023-03-31T05:47:02;10.60;55.90
49861;DHT22;35761;48.826;9.238;2023-03-31T05:49:35;10.50;56.50
49861;DHT22;35761;48.826;9.238;2023-03-31T05:52:06;10.50;57.50
49861;DHT22;35761;48.826;9.238;2023-03-31T05:54:39;10.50;58.10
49861;DHT22;35761;48.826;9.238;2023-03-31T05:57:10;10.50;58.50
49861;DHT22;35761;48.826;9.238;2023-03-31T05:59:41;10.50;58.40
49861;DHT22;35761;48.826;9.238;2023-03-31T06:02:12;10.50;59.00
49861;DHT22;35761;48.826;9.238;2023-03-31T06:04:47;10.50;59.30
49861;DHT22;35761;48.826;9.238;2023-03-31T06:07:18;10.60;60.10
49861;DHT22;35761;48.826;9.238;2023-03-31T06:09:49;10.60;59.80
49861;DHT22;35761;48.826;9.238;2023-03-31T06:12:19;10.60;59.60
49861;DHT22;35761;48.826;9.238;2023-03-31T06:14:50;10.60;59.70
49861;DHT22;35761;48.826;9.238;2023-03-31T06:17:20;10.60;59.70
49861;DHT22;35761;48.826;9.238;2023-03-31T06:19:53;10.60;59.40
49861;DHT22;35761;48.826;9.238;2023-03-31T06:22:24;10.50;59.60
49861;DHT22;35761;48.826;9.238;2023-03-31T06:24:54;10.50;59.90
49861;DHT22;35761;48.826;9.238;2023-03-31T06:27:25;10.60;60.10
49861;DHT22;35761;48.826;9.238;2023-03-31T06:29:55;10.60;60.50
49861;DHT22;35761;48.826;9.238;2023-03-31T06:32:26;10.60;60.70
49861;DHT22;35761;48.826;9.238;2023-03-31T06:34:59;10.60;60.80
49861;DHT22;35761;48.826;9.238;2023-03-31T06:37:29;10.60;60.40
49861;DHT22;35761;48.826;9.238;2023-03-31T06:40:00;10.50;60.40
49861;DHT22;35761;48.826;9.238;2023-03-31T06:42:30;10.50;60.70
49861;DHT22;35761;48.826;9.238;2023-03-31T06:45:01;10.40;61.30
49861;DHT22;35761;48.826;9.238;2023-03-31T06:47:31;10.40;61.70
49861;DHT22;35761;48.826;9.238;2023-03-31T06:50:08;10.40;62.50
49861;DHT22;35761;48.826;9.238;2023-03-31T06:52:39;10.40;64.20
49861;DHT22;35761;48.826;9.238;2023-03-31T06:55:10;10.30;64.00
49861;DHT22;35761;48.826;9.238;2023-03-31T06:57:42;10.30;64.60
49861;DHT22;35761;48.826;9.238;2023-03-31T07:00:13;10.30;65.10
49861;DHT22;35761;48.826;9.238;2023-03-31T07:02:48;10.20;65.40
49861;DHT22;35761;48.826;9.238;2023-03-31T07:05:22;10.20;66.30
49861;DHT22;35761;48.826;9.238;2023-03-31T07:07:54;10.10;67.50
49861;DHT22;35761;48.826;9.238;2023-03-31T07:10:27;10.10;68.10
49861;DHT22;35761;48.826;9.238;2023-03-31T07:12:58;10.00;69.50
49861;DHT22;35761;48.826;9.238;2023-03-31T07:15:31;10.00;69.90
49861;DHT22;35761;48.826;9.238;2023-03-31T07:18:02;10.00;69.20
49861;DHT22;35761;48.826;9.238;2023-03-31T07:20:35;10.00;70.00
49861;DHT22;35761;48.826;9.238;2023-03-31T07:23:06;10.00;69.00
49861;DHT22;35761;48.826;9.238;2023-03-31T07:25:37;10.00;69.80
49861;DHT22;35761;48.826;9.238;2023-03-31T07:28:07;10.00;68.20
49861;DHT22;35761;48.826;9.238;2023-03-31T07:30:39;10.10;68.60
49861;DHT22;35761;48.826;9.238;2023-03-31T07:33:09;10.10;68.40
49861;DHT22;35761;48.826;9.238;2023-03-31T07:35:43;10.10;66.20
49861;DHT22;35761;48.826;9.238;2023-03-31T07:38:29;10.20;63.30
49861;DHT22;35761;48.826;9.238;2023-03-31T07:41:00;10.20;64.00
49861;DHT22;35761;48.826;9.238;2023-03-31T07:43:36;10.20;63.40
49861;DHT22;35761;48.826;9.238;2023-03-31T07:46:12;10.20;62.80
49861;DHT22;35761;48.826;9.238;2023-03-31T07:48:44;10.30;63.20
49861;DHT22;35761;48.826;9.238;2023-03-31T07:51:22;10.30;62.00
49861;DHT22;35761;48.826;9.238;2023-03-31T07:53:54;10.30;59.80
49861;DHT22;35761;48.826;9.238;2023-03-31T07:56:25;10.40;60.70
49861;DHT22;35761;48.826;9.238;2023-03-31T07:58:55;10.40;59.60
49861;DHT22;35761;48.826;9.238;2023-03-31T08:01:25;10.40;57.90
49861;DHT22;35761;48.826;9.238;2023-03-31T08:03:56;10.40;57.30
49861;DHT22;35761;48.826;9.238;2023-03-31T08:06:29;10.50;55.50
49861;DHT22;35761;48.826;9.238;2023-03-31T08:09:00;10.50;54.30
49861;DHT22;35761;48.826;9.238;2023-03-31T08:11:33;10.50;54.20
49861;DHT22;35761;48.826;9.238;2023-03-31T08:14:03;10.50;53.70
49861;DHT22;35761;48.826;9.238;2023-03-31T08:16:34;10.60;51.70
49861;DHT22;35761;48.826;9.238;2023-03-31T08:19:05;10.70;51.70
49861;DHT22;35761;48.826;9.238;2023-03-31T08:21:38;10.80;53.50
49861;DHT22;35761;48.826;9.238;2023-03-31T08:24:08;10.80;53.90
49861;DHT22;35761;48.826;9.238;2023-03-31T08:26:40;10.90;51.70
49861;DHT22;35761;48.826;9.238;2023-03-31T08:29:10;10.90;51.70
49861;DHT22;35761;48.826;9.238;2023-03-31T08:31:41;11.00;52.50
49861;DHT22;35761;48.826;9.238;2023-03-31T08:34:11;11.10;49.60
49861;DHT22;35761;48.826;9.238;2023-03-31T08:36:44;11.10;52.20
49861;DHT22;35761;48.826;9.238;2023-03-31T08:39:15;11.10;50.20
49861;DHT22;35761;48.826;9.238;2023-03-31T08:41:52;11.20;49.50
49861;DHT22;35761;48.826;9.238;2023-03-31T08:44:29;11.30;48.90
49861;DHT22;35761;48.826;9.238;2023-03-31T08:47:06;11.40;50.20
49861;DHT22;35761;48.826;9.238;2023-03-31T08:49:41;11.40;49.10
49861;DHT22;35761;48.826;9.238;2023-03-31T08:52:22;11.60;47.60
49861;DHT22;35761;48.826;9.238;2023-03-31T08:54:57;11.70;48.00
49861;DHT22;35761;48.826;9.238;2023-03-31T08:57:32;11.70;48.70
49861;DHT22;35761;48.826;9.238;2023-03-31T09:00:14;11.90;47.80
49861;DHT22;35761;48.826;9.238;2023-03-31T09:02:50;12.00;47.20
49861;DHT22;35761;48.826;9.238;2023-03-31T09:05:51;12.10;45.50
49861;DHT22;35761;48.826;9.238;2023-03-31T09:08:38;12.20;46.70
49861;DHT22;35761;48.826;9.238;2023-03-31T09:11:13;12.30;45.60
49861;DHT22;35761;48.826;9.238;2023-03-31T09:14:00;12.50;43.00
49861;DHT22;35761;48.826;9.238;2023-03-31T09:16:43;12.60;43.70
49861;DHT22;35761;48.826;9.238;2023-03-31T09:19:30;12.70;42.40
49861;DHT22;35761;48.826;9.238;2023-03-31T09:22:07;12.90;37.50
49861;DHT22;35761;48.826;9.238;2023-03-31T09:24:48;12.90;36.60
49861;DHT22;35761;48.826;9.238;2023-03-31T09:27:23;13.00;36.80
49861;DHT22;35761;48.826;9.238;2023-03-31T09:30:00;13.10;37.00
49861;DHT22;35761;48.826;9.238;2023-03-31T09:32:36;13.20;35.10
49861;DHT22;35761;48.826;9.238;2023-03-31T09:35:15;13.20;35.70
49861;DHT22;35761;48.826;9.238;2023-03-31T09:37:48;13.30;34.00
49861;DHT22;35761;48.826;9.238;2023-03-31T09:40:24;13.40;33.10
49861;DHT22;35761;48.826;9.238;2023-03-31T09:42:59;13.40;33.30
49861;DHT22;35761;48.826;9.238;2023-03-31T09:45:31;13.30;32.40
49861;DHT22;35761;48.826;9.238;2023-03-31T09:48:04;13.20;32.30
49861;DHT22;35761;48.826;9.238;2023-03-31T09:50:42;13.20;32.80
49861;DHT22;35761;48.826;9.238;2023-03-31T09:53:19;13.20;32.30
49861;DHT22;35761;48.826;9.238;2023-03-31T09:56:00;13.20;29.80
49861;DHT22;35761;48.826;9.238;2023-03-31T09:58:39;13.30;29.60
49861;DHT22;35761;48.826;9.238;2023-03-31T10:01:12;13.40;29.80
49861;DHT22;35761;48.826;9.238;2023-03-31T10:03:49;13.50;30.60
49861;DHT22;35761;48.826;9.238;2023-03-31T10:06:22;13.60;29.00
49861;DHT22;35761;48.826;9.238;2023-03-31T10:08:54;13.80;30.30
49861;DHT22;35761;48.826;9.238;2023-03-31T10:11:28;13.90;30.20
49861;DHT22;35761;48.826;9.238;2023-03-31T10:14:01;14.00;28.00
49861;DHT22;35761;48.826;9.238;2023-03-31T10:16:34;13.90;28.40
49861;DHT22;35761;48.826;9.238;2023-03-31T10:19:20;13.90;28.20
49861;DHT22;35761;48.826;9.238;2023-03-31T10:21:56;13.90;28.40
49861;DHT22;35761;48.826;9.238;2023-03-31T10:24:35;14.00;29.50
49861;DHT22;35761;48.826;9.238;2023-03-31T10:27:18;14.00;26.90
49861;DHT22;35761;48.826;9.238;2023-03-31T10:29:51;14.00;27.90
49861;DHT22;35761;48.826;9.238;2023-03-31T10:32:24;14.10;26.70
49861;DHT22;35761;48.826;9.238;2023-03-31T10:34:57;14.10;26.80
49861;DHT22;35761;48.826;9.238;2023-03-31T10:37:34;14.20;27.40
49861;DHT22;35761;48.826;9.238;2023-03-31T10:40:14;14.30;25.60
49861;DHT22;35761;48.826;9.238;2023-03-31T10:42:58;14.30;25.20
49861;DHT22;35761;48.826;9.238;2023-03-31T10:45:36;14.30;25.80
49861;DHT22;35761;48.826;9.238;2023-03-31T10:48:17;14.50;26.70
49861;DHT22;35761;48.826;9.238;2023-03-31T10:50:49;14.50;25.90
49861;DHT22;35761;48.826;9.238;2023-03-31T10:53:20;14.60;25.00
49861;DHT22;35761;48.826;9.238;2023-03-31T10:55:58;14.60;26.00
49861;DHT22;35761;48.826;9.238;2023-03-31T10:58:46;14.70;24.80
49861;DHT22;35761;48.826;9.238;2023-03-31T11:01:42;14.70;22.10
49861;DHT22;35761;48.826;9.238;2023-03-31T11:04:35;14.60;23.60
49861;DHT22;35761;48.826;9.238;2023-03-31T11:07:20;14.70;23.70
49861;DHT22;35761;48.826;9.238;2023-03-31T11:10:07;14.70;22.50
49861;DHT22;35761;48.826;9.238;2023-03-31T11:12:52;14.70;23.60
49861;DHT22;35761;48.826;9.238;2023-03-31T11:15:35;14.60;23.20
49861;DHT22;35761;48.826;9.238;2023-03-31T11:18:32;14.50;24.30
49861;DHT22;35761;48.826;9.238;2023-03-31T11:21:15;14.50;23.90
49861;DHT22;35761;48.826;9.238;2023-03-31T11:23:57;14.40;26.90
49861;DHT22;35761;48.826;9.238;2023-03-31T11:26:38;14.00;30.30
49861;DHT22;35761;48.826;9.238;2023-03-31T11:29:25;12.70;39.80
49861;DHT22;35761;48.826;9.238;2023-03-31T11:32:15;11.10;50.20
49861;DHT22;35761;48.826;9.238;2023-03-31T11:35:14;10.50;54.40
49861;DHT22;35761;48.826;9.238;2023-03-31T11:38:04;10.10;55.70
49861;DHT22;35761;48.826;9.238;2023-03-31T11:40:56;9.90;51.80
49861;DHT22;35761;48.826;9.238;2023-03-31T11:43:33;9.90;55.50
49861;DHT22;35761;48.826;9.238;2023-03-31T11:46:09;9.80;51.40
49861;DHT22;35761;48.826;9.238;2023-03-31T11:48:47;9.90;51.70
49861;DHT22;35761;48.826;9.238;2023-03-31T11:51:26;9.90;51.40
49861;DHT22;35761;48.826;9.238;2023-03-31T11:54:01;9.90;50.70
49861;DHT22;35761;48.826;9.238;2023-03-31T11:56:39;10.00;51.60
49861;DHT22;35761;48.826;9.238;2023-03-31T11:59:14;10.00;48.50
49861;DHT22;35761;48.826;9.238;2023-03-31T12:01:49;10.00;49.50
49861;DHT22;35761;48.826;9.238;2023-03-31T12:04:32;10.10;49.10
49861;DHT22;35761;48.826;9.238;2023-03-31T12:07:13;10.10;47.90
49861;DHT22;35761;48.826;9.238;2023-03-31T12:09:56;10.00;47.90
49861;DHT22;35761;48.826;9.238;2023-03-31T12:12:35;10.20;48.90
49861;DHT22;35761;48.826;9.238;2023-03-31T12:15:16;10.30;49.80
49861;DHT22;35761;48.826;9.238;2023-03-31T12:17:54;10.50;45.80
49861;DHT22;35761;48.826;9.238;2023-03-31T12:20:34;10.80;44.90
49861;DHT22;35761;48.826;9.238;2023-03-31T12:23:12;11.10;45.20
49861;DHT22;35761;48.826;9.238;2023-03-31T12:25:49;11.40;42.90
49861;DHT22;35761;48.826;9.238;2023-03-31T12:28:24;11.50;43.00
49861;DHT22;35761;48.826;9.238;2023-03-31T12:30:56;11.60;41.30
49861;DHT22;35761;48.826;9.238;2023-03-31T12:33:31;11.70;41.20
49861;DHT22;35761;48.826;9.238;2023-03-31T12:36:17;11.70;38.10
49861;DHT22;35761;48.826;9.238;2023-03-31T12:39:05;11.90;39.30
49861;DHT22;35761;48.826;9.238;2023-03-31T12:42:07;12.20;38.90
49861;DHT22;35761;48.826;9.238;2023-03-31T12:44:50;12.50;37.50
49861;DHT22;35761;48.826;9.238;2023-03-31T12:47:38;12.60;35.80
49861;DHT22;35761;48.826;9.238;2023-03-31T12:50:28;12.70;35.70
49861;DHT22;35761;48.826;9.238;2023-03-31T12:53:15;12.90;35.50
49861;DHT22;35761;48.826;9.238;2023-03-31T12:55:54;13.10;34.60
49861;DHT22;35761;48.826;9.238;2023-03-31T12:58:50;13.10;33.10
49861;DHT22;35761;48.826;9.238;2023-03-31T13:01:21;13.30;33.10
49861;DHT22;35761;48.826;9.238;2023-03-31T13:04:08;13.40;32.80
49861;DHT22;35761;48.826;9.238;2023-03-31T13:06:56;13.60;31.40
49861;DHT22;35761;48.826;9.238;2023-03-31T13:09:44;13.80;30.90
49861;DHT22;35761;48.826;9.238;2023-03-31T13:12:22;13.90;32.30
49861;DHT22;35761;48.826;9.238;2023-03-31T13:14:55;14.20;32.50
49861;DHT22;35761;48.826;9.238;2023-03-31T13:17:30;14.30;29.90
49861;DHT22;35761;48.826;9.238;2023-03-31T13:23:18;13.70;29.60
49861;DHT22;35761;48.826;9.238;2023-03-31T13:25:55;13.20;34.10
49861;DHT22;35761;48.826;9.238;2023-03-31T13:28:37;12.80;34.70
49861;DHT22;35761;48.826;9.238;2023-03-31T13:31:09;12.40;35.20
49861;DHT22;35761;48.826;9.238;2023-03-31T13:33:43;12.10;37.10
49861;DHT22;35761;48.826;9.238;2023-03-31T13:36:30;11.90;37.60
49861;DHT22;35761;48.826;9.238;2023-03-31T13:39:53;11.70;37.20
49861;DHT22;35761;48.826;9.238;2023-03-31T13:43:00;11.70;39.00
49861;DHT22;35761;48.826;9.238;2023-03-31T13:49:02;11.80;35.90
49861;DHT22;35761;48.826;9.238;2023-03-31T13:51:42;11.70;34.50
49861;DHT22;35761;48.826;9.238;2023-03-31T13:54:43;11.60;37.30
49861;DHT22;35761;48.826;9.238;2023-03-31T14:04:24;11.00;38.70
49861;DHT22;35761;48.826;9.238;2023-03-31T14:07:05;10.90;40.80
49861;DHT22;35761;48.826;9.238;2023-03-31T14:09:41;10.80;39.50
49861;DHT22;35761;48.826;9.238;2023-03-31T14:12:20;10.70;43.00
49861;DHT22;35761;48.826;9.238;2023-03-31T14:15:06;10.60;42.10
49861;DHT22;35761;48.826;9.238;2023-03-31T14:17:46;10.70;41.00
49861;DHT22;35761;48.826;9.238;2023-03-31T14:20:32;10.80;40.80
49861;DHT22;35761;48.826;9.238;2023-03-31T14:23:16;11.20;38.30
49861;DHT22;35761;48.826;9.238;2023-03-31T14:25:58;11.70;38.20
49861;DHT22;35761;48.826;9.238;2023-03-31T14:28:46;12.10;35.50
49861;DHT22;35761;48.826;9.238;2023-03-31T14:31:44;12.50;35.60
49861;DHT22;35761;48.826;9.238;2023-03-31T14:34:43;12.60;33.70
49861;DHT22;35761;48.826;9.238;2023-03-31T14:37:25;12.70;35.20
49861;DHT22;35761;48.826;9.238;2023-03-31T14:39:57;12.80;34.10
49861;DHT22;35761;48.826;9.238;2023-03-31T14:42:36;12.90;33.70
49861;DHT22;35761;48.826;9.238;2023-03-31T14:45:16;13.00;34.10
49861;DHT22;35761;48.826;9.238;2023-03-31T14:48:01;13.10;34.60
49861;DHT22;35761;48.826;9.238;2023-03-31T14:50:42;13.30;33.90
49861;DHT22;35761;48.826;9.238;2023-03-31T14:53:14;13.30;32.80
49861;DHT22;35761;48.826;9.238;2023-03-31T14:55:46;13.40;32.60
49861;DHT22;35761;48.826;9.238;2023-03-31T14:58:27;13.50;32.30
49861;DHT22;35761;48.826;9.238;2023-03-31T15:01:02;13.50;32.10
49861;DHT22;35761;48.826;9.238;2023-03-31T15:03:39;13.70;31.20
49861;DHT22;35761;48.826;9.238;2023-03-31T15:06:11;13.60;31.20
49861;DHT22;35761;48.826;9.238;2023-03-31T15:08:42;13.70;31.20
49861;DHT22;35761;48.826;9.238;2023-03-31T15:11:14;13.70;30.80
49861;DHT22;35761;48.826;9.238;2023-03-31T15:13:49;13.80;30.60
49861;DHT22;35761;48.826;9.238;2023-03-31T15:16:35;13.80;30.60
49861;DHT22;35761;48.826;9.238;2023-03-31T15:19:16;13.60;30.80
49861;DHT22;35761;48.826;9.238;2023-03-31T15:21:54;13.60;31.50
49861;DHT22;35761;48.826;9.238;2023-03-31T15:24:28;13.80;31.90
49861;DHT22;35761;48.826;9.238;2023-03-31T15:27:01;14.10;31.20
49861;DHT22;35761;48.826;9.238;2023-03-31T15:29:37;14.20;29.90
49861;DHT22;35761;48.826;9.238;2023-03-31T15:32:13;14.20;29.20
49861;DHT22;35761;48.826;9.238;2023-03-31T15:34:49;14.40;29.10
49861;DHT22;35761;48.826;9.238;2023-03-31T15:37:22;14.50;29.30
49861;DHT22;35761;48.826;9.238;2023-03-31T15:39:56;14.50;29.30
49861;DHT22;35761;48.826;9.238;2023-03-31T15:42:27;14.60;28.50
49861;DHT22;35761;48.826;9.238;2023-03-31T15:45:24;14.70;28.50
49861;DHT22;35761;48.826;9.238;2023-03-31T15:48:14;14.70;28.30
49861;DHT22;35761;48.826;9.238;2023-03-31T15:50:50;14.30;28.50
49861;DHT22;35761;48.826;9.238;2023-03-31T15:53:25;14.00;29.10
49861;DHT22;35761;48.826;9.238;2023-03-31T15:55:59;14.00;30.10
49861;DHT22;35761;48.826;9.238;2023-03-31T15:58:55;14.10;29.90
49861;DHT22;35761;48.826;9.238;2023-03-31T16:01:28;14.10;30.20
49861;DHT22;35761;48.826;9.238;2023-03-31T16:04:04;14.10;30.30
49861;DHT22;35761;48.826;9.238;2023-03-31T16:06:45;13.90;30.10
49861;DHT22;35761;48.826;9.238;2023-03-31T16:09:21;13.60;29.50
49861;DHT22;35761;48.826;9.238;2023-03-31T16:11:55;13.50;29.90
49861;DHT22;35761;48.826;9.238;2023-03-31T16:14:30;13.40;30.00
49861;DHT22;35761;48.826;9.238;2023-03-31T16:17:03;13.30;30.10
49861;DHT22;35761;48.826;9.238;2023-03-31T16:19:40;13.30;30.40
49861;DHT22;35761;48.826;9.238;2023-03-31T16:22:17;13.30;31.00
49861;DHT22;35761;48.826;9.238;2023-03-31T16:24:48;13.20;30.60
49861;DHT22;35761;48.826;9.238;2023-03-31T16:27:21;13.20;31.70
49861;DHT22;35761;48.826;9.238;2023-03-31T16:30:05;13.30;30.90
49861;DHT22;35761;48.826;9.238;2023-03-31T16:32:37;13.20;30.30
49861;DHT22;35761;48.826;9.238;2023-03-31T16:35:08;13.10;31.10
49861;DHT22;35761;48.826;9.238;2023-03-31T16:37:41;13.00;31.30
49861;DHT22;35761;48.826;9.238;2023-03-31T16:40:13;12.90;30.20
49861;DHT22;35761;48.826;9.238;2023-03-31T16:42:44;12.70;31.30
49861;DHT22;35761;48.826;9.238;2023-03-31T16:45:14;12.40;31.70
49861;DHT22;35761;48.826;9.238;2023-03-31T16:47:47;12.50;32.00
49861;DHT22;35761;48.826;9.238;2023-03-31T16:50:20;12.40;31.90
49861;DHT22;35761;48.826;9.238;2023-03-31T16:52:53;12.40;32.20